Time;durP1;ratioP1;P1;durP2;ratioP2;P2;SDS_P1;SDS_P2;PMS_P1;PMS_P2;Temp;Humidity;BMP_temperature;BMP_pressure;BME280_temperature;BME280_humidity;BME280_pressure;Samples;Min_cycle;Max_cycle;Signal;HPM_P1;HPM_P2
2022/01/24 00:00:54;;;;;;;3.50;3.13;;;;;;;3.89;79.87;101889.22;5003660;28;20252;-59
2022/01/24 00:03:19;;;;;;;3.93;2.87;;;;;;;3.68;80.64;101897.66;5041168;28;20301;-60
2022/01/24 00:05:45;;;;;;;3.20;2.90;;;;;;;3.74;81.00;101892.59;5013585;28;20204;-61
2022/01/24 00:08:10;;;;;;;3.97;3.10;;;;;;;3.59;81.54;101890.00;4997380;28;20624;-60
2022/01/24 00:10:38;;;;;;;3.40;2.70;;;;;;;3.69;81.47;101895.09;4991572;28;20230;-60
2022/01/24 00:16:00;;;;;;;2.43;2.23;;;;;;;3.67;81.66;101889.19;4999783;28;20228;-60
2022/01/24 00:26:39;;;;;;;4.23;2.77;;;;;;;3.45;82.04;101882.31;5004809;28;20183;-60
2022/01/24 00:26:46;;;;;;;2.53;2.33;;;;;;;3.58;82.47;101873.88;4986753;28;20186;-60
2022/01/24 00:29:14;;;;;;;3.00;2.70;;;;;;;3.58;82.73;101880.66;4996724;28;20599;-60
2022/01/24 00:31:39;;;;;;;2.67;2.47;;;;;;;3.55;82.77;101871.34;4947723;28;20221;-60
2022/01/24 00:34:04;;;;;;;4.10;2.23;;;;;;;3.62;82.73;101878.16;4973909;28;20183;-60
2022/01/24 00:36:30;;;;;;;4.07;2.37;;;;;;;3.59;82.33;101869.66;4980862;28;20230;-59
2022/01/24 00:38:55;;;;;;;3.27;2.50;;;;;;;3.60;83.08;101871.31;4977701;28;20230;-60
2022/01/24 00:41:21;;;;;;;4.30;2.73;;;;;;;3.57;83.14;101869.63;4985280;28;20223;-60
2022/01/24 00:46:35;;;;;;;3.50;2.40;;;;;;;3.44;83.46;101873.84;4996480;28;20655;-61
2022/01/24 00:56:58;;;;;;;2.87;2.67;;;;;;;3.28;83.87;101874.63;4978953;28;20287;-60
2022/01/24 00:59:24;;;;;;;4.00;3.03;;;;;;;3.31;84.25;101870.41;4997004;28;20261;-60
2022/01/24 01:01:49;;;;;;;4.20;3.20;;;;;;;3.16;84.89;101883.03;4974864;28;20727;-60
2022/01/24 01:04:15;;;;;;;3.60;3.20;;;;;;;3.19;85.33;101881.38;4988262;28;20195;-62
2022/01/24 01:06:43;;;;;;;3.23;2.80;;;;;;;3.29;85.19;101873.78;4977241;28;20214;-60
2022/01/24 01:20:04;;;;;;;4.83;2.90;;;;;;;3.60;83.61;101882.38;4965685;28;20315;-60
2022/01/24 01:22:30;;;;;;;3.57;2.60;;;;;;;3.67;83.75;101881.56;4978543;28;20280;-59
2022/01/24 01:24:56;;;;;;;3.47;3.17;;;;;;;3.49;84.26;101884.88;4993294;28;20559;-61
2022/01/24 01:27:32;;;;;;;3.87;3.20;;;;;;;3.63;83.96;101881.53;4991596;28;20676;-61
2022/01/24 01:30:03;;;;;;;3.83;2.70;;;;;;;3.64;83.40;101881.53;4991745;28;20195;-61
2022/01/24 01:40:42;;;;;;;3.50;3.20;;;;;;;3.58;83.66;101889.16;4996088;28;20186;-60
2022/01/24 01:56:41;;;;;;;5.83;3.10;;;;;;;3.81;82.30;101873.09;4992866;28;20227;-61
2022/01/24 01:59:07;;;;;;;3.83;3.30;;;;;;;3.93;81.84;101873.13;4992971;28;20217;-60
2022/01/24 02:01:32;;;;;;;2.83;2.50;;;;;;;3.81;80.64;101871.41;5007665;28;20264;-60
2022/01/24 02:04:02;;;;;;;5.60;3.00;;;;;;;3.76;81.49;101875.63;5009554;28;20179;-60
2022/01/24 02:06:43;;;;;;;2.83;2.60;;;;;;;3.67;81.53;101870.50;4997116;28;20278;-60
2022/01/24 02:09:10;;;;;;;2.83;2.63;;;;;;;3.79;81.40;101870.53;4997935;28;20291;-60
2022/01/24 02:11:36;;;;;;;5.23;2.83;;;;;;;3.84;80.58;101870.56;4979858;28;20233;-60
2022/01/24 02:14:09;;;;;;;3.07;2.77;;;;;;;3.88;80.50;101868.03;4989624;28;20187;-60
2022/01/24 02:16:55;;;;;;;2.40;2.20;;;;;;;3.95;80.59;101873.13;4989556;28;20660;-61
2022/01/24 02:19:35;;;;;;;2.97;2.67;;;;;;;4.02;80.22;101875.66;4989877;28;20653;-60
2022/01/24 02:24:31;;;;;;;4.73;2.90;;;;;;;4.24;79.18;101874.84;4989805;28;20172;-60
2022/01/24 02:26:58;;;;;;;2.93;2.73;;;;;;;4.18;78.81;101873.13;4989733;28;20606;-60
2022/01/24 02:31:51;;;;;;;4.53;2.60;;;;;;;3.74;80.48;101874.78;4979588;28;20215;-60
2022/01/24 02:34:22;;;;;;;3.63;2.80;;;;;;;3.93;81.27;101872.25;4988995;28;20187;-60
2022/01/24 02:36:48;;;;;;;3.63;2.20;;;;;;;3.60;81.59;101871.31;4991594;28;20238;-60
2022/01/24 02:39:43;;;;;;;5.77;2.73;;;;;;;3.78;81.27;101866.28;5011396;28;20308;-60
2022/01/24 02:50:46;;;;;;;2.70;2.30;;;;;;;3.91;80.21;101858.66;4982694;28;20249;-60
2022/01/24 02:53:11;;;;;;;2.47;2.27;;;;;;;3.99;81.03;101854.44;4981742;28;20180;-60
2022/01/24 02:55:38;;;;;;;2.70;2.50;;;;;;;4.02;80.53;101851.91;4989616;28;20304;-61
2022/01/24 02:58:04;;;;;;;3.03;2.43;;;;;;;3.96;79.88;101851.91;4991320;28;20266;-60
2022/01/24 03:00:29;;;;;;;2.50;2.30;;;;;;;3.89;79.75;101856.13;4981429;28;20660;-60
2022/01/24 03:02:55;;;;;;;4.90;2.40;;;;;;;3.87;80.17;101855.28;4990233;28;20198;-61
2022/01/24 03:05:20;;;;;;;2.90;2.47;;;;;;;3.82;80.09;101850.19;4976098;28;20872;-61
2022/01/24 03:07:45;;;;;;;2.77;2.30;;;;;;;4.03;80.40;101843.41;4997334;28;20201;-60
2022/01/24 03:10:24;;;;;;;2.93;2.40;;;;;;;3.99;80.12;101850.19;5000404;28;20183;-61
2022/01/24 03:12:59;;;;;;;5.13;2.63;;;;;;;3.99;80.12;101845.09;5009640;28;20182;-61
2022/01/24 03:15:25;;;;;;;4.10;2.40;;;;;;;3.87;80.39;101838.31;5007749;28;20210;-60
2022/01/24 03:17:50;;;;;;;4.10;2.73;;;;;;;3.83;81.28;101835.75;5010629;28;20189;-61
2022/01/24 03:20:16;;;;;;;3.50;2.60;;;;;;;3.90;81.30;101839.16;5000694;28;20675;-61
2022/01/24 03:22:41;;;;;;;2.70;2.50;;;;;;;3.95;80.93;101833.22;4995826;28;20198;-61
2022/01/24 03:25:06;;;;;;;2.40;2.20;;;;;;;3.88;80.61;101831.50;4994093;28;20197;-61
2022/01/24 03:27:32;;;;;;;4.87;2.50;;;;;;;3.97;80.51;101833.22;5009065;28;20213;-61
2022/01/24 03:29:57;;;;;;;4.43;2.57;;;;;;;4.12;80.46;101825.59;4997200;28;20191;-61
2022/01/24 03:32:22;;;;;;;4.07;2.97;;;;;;;3.87;80.11;101817.09;4988924;28;20314;-61
2022/01/24 03:34:48;;;;;;;3.23;2.57;;;;;;;3.96;80.58;101821.34;4990111;28;20190;-61
2022/01/24 03:37:13;;;;;;;2.87;2.23;;;;;;;3.61;81.14;101817.03;4991917;28;20700;-61
2022/01/24 03:39:38;;;;;;;3.27;2.00;;;;;;;3.44;82.81;101810.22;4993392;28;20175;-61
2022/01/24 03:42:04;;;;;;;2.40;2.20;;;;;;;3.59;82.36;101813.66;4983840;28;20246;-61
2022/01/24 03:44:29;;;;;;;2.37;2.17;;;;;;;3.87;81.60;101809.47;4990001;28;20664;-60
2022/01/24 03:52:08;;;;;;;4.70;2.60;;;;;;;3.57;83.05;101795.00;4977295;28;20280;-61
2022/01/24 03:54:34;;;;;;;2.17;2.07;;;;;;;3.85;82.77;101801.81;4999959;28;20233;-61
2022/01/24 03:56:59;;;;;;;2.77;2.57;;;;;;;3.78;82.49;101801.81;5009849;28;20198;-61
2022/01/24 03:59:24;;;;;;;2.60;2.40;;;;;;;3.58;83.27;101802.63;5009234;28;20788;-61
2022/01/24 04:01:50;;;;;;;2.97;2.50;;;;;;;3.55;83.14;101795.00;4974762;28;20231;-61
2022/01/24 04:04:15;;;;;;;3.03;2.23;;;;;;;3.47;84.00;101796.66;4990209;28;20553;-61
2022/01/24 04:06:40;;;;;;;4.90;2.33;;;;;;;3.48;83.94;101794.13;4989341;28;20304;-61
2022/01/24 04:09:06;;;;;;;2.27;2.03;;;;;;;3.45;84.49;101796.66;4990499;28;20187;-60
2022/01/24 04:11:36;;;;;;;3.87;2.50;;;;;;;3.47;84.71;101796.66;4987662;28;20278;-60
2022/01/24 04:14:21;;;;;;;2.87;2.20;;;;;;;3.47;84.89;101802.59;4990375;28;20182;-60
2022/01/24 04:16:53;;;;;;;4.10;2.23;;;;;;;3.47;84.81;101797.50;4995669;28;20242;-61
2022/01/24 04:21:59;;;;;;;4.57;2.43;;;;;;;3.51;85.21;101793.28;4973943;28;20320;-60
2022/01/24 04:24:25;;;;;;;2.67;1.97;;;;;;;3.44;84.72;101797.50;4971811;28;20275;-61
2022/01/24 04:26:51;;;;;;;2.13;1.93;;;;;;;3.37;85.42;101799.19;4989050;28;20175;-61
2022/01/24 04:29:16;;;;;;;2.60;2.40;;;;;;;3.36;85.56;101796.63;4990091;28;20273;-61
2022/01/24 04:31:43;;;;;;;2.63;2.43;;;;;;;3.45;86.21;101790.72;4960300;28;20225;-60
2022/01/24 04:34:09;;;;;;;2.30;2.00;;;;;;;3.47;85.68;101796.66;4992840;28;20620;-61
2022/01/24 04:36:34;;;;;;;2.60;2.40;;;;;;;3.61;85.87;101795.00;4989928;28;20204;-61
2022/01/24 04:38:59;;;;;;;2.70;2.43;;;;;;;3.57;85.59;101795.00;4989940;28;20249;-61
2022/01/24 04:41:33;;;;;;;3.70;2.50;;;;;;;3.51;85.08;101793.28;4990330;28;20794;-60
2022/01/24 04:51:54;;;;;;;2.23;2.03;;;;;;;3.71;85.03;101803.50;4995557;28;20261;-61
2022/01/24 04:54:39;;;;;;;2.70;2.50;;;;;;;3.81;84.60;101802.66;4985976;28;20234;-60
2022/01/24 04:57:07;;;;;;;2.27;2.03;;;;;;;3.54;85.32;101798.38;4993933;28;20175;-61
2022/01/24 04:59:32;;;;;;;3.57;2.33;;;;;;;3.43;85.88;101805.16;5008811;28;20660;-61
2022/01/24 05:01:57;;;;;;;3.30;2.43;;;;;;;3.51;86.52;101796.69;4998152;28;20237;-61
2022/01/24 05:04:23;;;;;;;2.23;2.10;;;;;;;3.49;86.06;101802.63;4994043;28;20343;-61
2022/01/24 05:06:48;;;;;;;2.30;2.10;;;;;;;3.46;85.62;101805.13;4993520;28;20190;-61
2022/01/24 05:09:13;;;;;;;3.27;2.27;;;;;;;3.42;85.45;101796.66;4993536;28;20279;-61
2022/01/24 05:11:49;;;;;;;1.90;1.80;;;;;;;3.39;86.06;101800.03;4984150;28;20226;-61
2022/01/24 05:25:11;;;;;;;3.30;2.33;;;;;;;3.22;87.31;101788.97;4993061;28;20241;-60
2022/01/24 05:27:36;;;;;;;2.17;1.97;;;;;;;3.30;87.41;101788.97;4993305;28;20183;-61
2022/01/24 05:30:02;;;;;;;2.10;1.90;;;;;;;3.34;87.22;101794.09;4992144;28;20188;-62
2022/01/24 05:32:28;;;;;;;2.03;1.93;;;;;;;3.23;87.07;101793.22;5004820;28;20206;-61
2022/01/24 05:34:53;;;;;;;1.83;1.73;;;;;;;3.24;87.41;101789.84;4993086;28;20218;-60
2022/01/24 05:37:18;;;;;;;2.00;1.80;;;;;;;3.36;87.87;101801.72;4992830;28;20534;-61
2022/01/24 05:39:43;;;;;;;2.67;2.30;;;;;;;3.22;87.64;101797.47;4992882;28;20212;-60
2022/01/24 05:42:09;;;;;;;2.00;1.90;;;;;;;3.38;87.18;101794.94;4995214;28;20686;-61
2022/01/24 05:44:34;;;;;;;2.10;1.90;;;;;;;3.28;87.38;101795.78;4987475;28;20294;-61
2022/01/24 05:46:59;;;;;;;2.30;2.10;;;;;;;3.38;87.30;101794.94;4992713;28;20552;-60
2022/01/24 05:49:25;;;;;;;2.50;2.30;;;;;;;3.44;87.15;101794.13;4992833;28;20250;-61
2022/01/24 05:51:50;;;;;;;4.77;1.90;;;;;;;3.46;86.72;101800.06;4996655;28;20238;-61
2022/01/24 05:54:15;;;;;;;5.33;2.40;;;;;;;3.34;86.92;101800.88;4993586;28;20688;-61
2022/01/24 05:56:40;;;;;;;2.20;2.00;;;;;;;3.41;86.49;101800.03;4991722;28;20226;-61
2022/01/24 05:59:06;;;;;;;2.67;1.93;;;;;;;3.39;86.18;101802.56;4992776;28;20273;-61
2022/01/24 06:01:31;;;;;;;2.23;2.03;;;;;;;3.45;86.82;101809.38;4991183;28;20236;-61
2022/01/24 06:03:56;;;;;;;2.30;2.10;;;;;;;3.53;86.28;101807.69;4980766;28;20183;-61
2022/01/24 06:06:22;;;;;;;2.30;2.10;;;;;;;3.56;86.36;101809.44;4992126;28;20628;-61
2022/01/24 06:08:47;;;;;;;2.10;2.00;;;;;;;3.66;85.99;101808.59;4992705;28;20223;-61
2022/01/24 06:11:12;;;;;;;2.17;2.07;;;;;;;3.63;85.57;101808.56;4981683;28;20243;-60
2022/01/24 06:13:38;;;;;;;3.47;1.90;;;;;;;3.63;85.88;101810.28;4979020;28;20659;-60
2022/01/24 06:16:05;;;;;;;2.13;2.00;;;;;;;3.45;86.36;101816.16;4992067;28;20203;-61
2022/01/24 06:18:30;;;;;;;3.10;1.83;;;;;;;3.43;86.70;101815.31;4992254;28;20318;-61
2022/01/24 06:20:55;;;;;;;2.97;2.17;;;;;;;3.47;86.58;101807.69;4988878;28;20230;-61
2022/01/24 06:23:21;;;;;;;2.10;2.00;;;;;;;3.37;86.83;101821.22;4989818;28;20198;-60
2022/01/24 06:25:46;;;;;;;2.30;2.10;;;;;;;3.47;86.81;101817.03;4985762;28;20283;-61
2022/01/24 06:28:12;;;;;;;3.27;2.60;;;;;;;3.44;87.35;101817.03;4992192;28;20182;-61
2022/01/24 06:30:37;;;;;;;7.17;3.73;;;;;;;3.54;87.15;101819.56;4986409;28;20234;-61
2022/01/24 06:33:03;;;;;;;2.57;2.37;;;;;;;3.70;86.52;101819.63;5001212;28;20600;-61
2022/01/24 06:35:28;;;;;;;2.67;1.87;;;;;;;3.46;86.43;101821.28;4991738;28;20196;-61
2022/01/24 06:37:54;;;;;;;2.67;2.10;;;;;;;3.57;86.95;101826.38;4993083;28;20189;-61
2022/01/24 06:40:19;;;;;;;2.40;2.20;;;;;;;3.61;86.55;101823.00;4987344;28;20183;-60
2022/01/24 06:42:45;;;;;;;5.10;2.50;;;;;;;3.61;86.81;101830.63;5002376;28;20827;-61
2022/01/24 06:45:11;;;;;;;3.40;2.50;;;;;;;3.80;86.56;101839.16;4995134;28;20190;-61
2022/01/24 06:47:36;;;;;;;2.93;2.40;;;;;;;3.87;86.02;101840.84;4996709;28;20597;-61
2022/01/24 06:50:03;;;;;;;2.93;2.50;;;;;;;3.64;85.27;101845.91;4991463;28;20191;-61
2022/01/24 06:52:29;;;;;;;2.20;1.97;;;;;;;3.58;85.79;101834.88;5006012;28;20222;-61
2022/01/24 06:54:54;;;;;;;2.30;2.10;;;;;;;3.58;85.94;101835.69;4997602;28;20655;-61
2022/01/24 06:57:19;;;;;;;2.20;2.00;;;;;;;3.50;85.68;101845.88;4992523;28;20329;-61
2022/01/24 06:59:46;;;;;;;2.67;2.23;;;;;;;3.60;86.77;101845.88;4991771;28;20178;-61
2022/01/24 07:02:13;;;;;;;2.50;2.30;;;;;;;3.62;86.54;101852.69;5004259;28;20228;-61
2022/01/24 07:04:39;;;;;;;3.30;2.53;;;;;;;3.52;86.90;101862.00;4994529;28;20588;-60
2022/01/24 07:07:08;;;;;;;2.37;2.17;;;;;;;3.64;86.71;101858.63;4997543;28;20194;-60
2022/01/24 07:09:35;;;;;;;4.53;2.80;;;;;;;3.56;86.48;101860.31;4995215;28;20217;-61
2022/01/24 07:12:00;;;;;;;3.73;2.20;;;;;;;3.50;86.70;101860.28;4996691;28;21680;-60
2022/01/24 07:14:26;;;;;;;2.30;2.10;;;;;;;3.39;87.33;101860.25;4994790;28;20200;-61
2022/01/24 07:19:30;;;;;;;4.53;2.30;;;;;;;3.19;87.33;101868.66;4993369;28;20229;-61
2022/01/24 07:21:58;;;;;;;2.40;2.20;;;;;;;3.24;87.26;101866.13;5001983;28;20218;-61
2022/01/24 07:24:24;;;;;;;2.40;2.20;;;;;;;3.20;87.91;101866.94;4997100;28;20259;-61
2022/01/24 07:26:49;;;;;;;3.23;2.60;;;;;;;3.19;87.00;101862.72;4992230;28;20182;-61
2022/01/24 07:29:15;;;;;;;6.40;2.60;;;;;;;3.15;87.42;101861.00;4995198;28;20252;-61
2022/01/24 07:31:41;;;;;;;2.83;2.53;;;;;;;3.25;87.00;101866.97;4995958;28;20230;-61
2022/01/24 07:34:06;;;;;;;5.17;2.60;;;;;;;3.21;86.76;101864.44;5009543;28;20187;-61
2022/01/24 07:36:31;;;;;;;2.30;2.10;;;;;;;3.30;87.58;101862.75;5001483;28;20718;-61
2022/01/24 07:38:57;;;;;;;2.47;2.27;;;;;;;3.33;86.90;101860.22;4994946;28;20193;-61
2022/01/24 07:41:26;;;;;;;3.30;2.40;;;;;;;3.45;86.41;101862.81;5001358;28;20237;-61
2022/01/24 07:43:51;;;;;;;2.97;2.60;;;;;;;3.42;86.29;101869.59;4993586;28;20275;-61
2022/01/24 07:46:17;;;;;;;3.30;2.80;;;;;;;3.32;86.44;101881.41;4995519;28;20290;-60
2022/01/24 07:48:42;;;;;;;2.97;2.40;;;;;;;3.44;86.65;101867.91;4993677;28;20573;-61
2022/01/24 07:51:08;;;;;;;2.57;2.37;;;;;;;3.42;86.33;101874.69;4994834;28;20233;-60
2022/01/24 07:53:34;;;;;;;2.43;2.23;;;;;;;3.42;86.50;101872.97;4996175;28;20178;-60
2022/01/24 07:55:59;;;;;;;2.80;2.60;;;;;;;3.26;86.25;101866.97;4996725;28;20200;-60
2022/01/24 07:58:25;;;;;;;2.57;2.37;;;;;;;3.31;86.94;101870.41;4990495;28;20178;-61
2022/01/24 08:00:50;;;;;;;3.27;2.70;;;;;;;3.31;86.10;101867.00;4978619;28;20580;-61
2022/01/24 08:03:16;;;;;;;2.70;2.50;;;;;;;3.27;87.03;101861.03;4990190;28;20183;-60
2022/01/24 08:05:43;;;;;;;3.73;2.53;;;;;;;3.30;86.37;101860.19;4991227;28;20199;-61
2022/01/24 08:08:08;;;;;;;2.53;2.33;;;;;;;3.57;86.95;101859.44;4995707;28;20199;-61
2022/01/24 08:10:34;;;;;;;4.23;3.07;;;;;;;3.63;85.38;101861.16;4988199;28;20256;-60
2022/01/24 08:13:00;;;;;;;4.60;3.40;;;;;;;3.57;85.08;101864.53;5002526;28;20190;-61
2022/01/24 08:15:26;;;;;;;2.23;2.13;;;;;;;3.48;85.00;101860.28;4986078;28;20269;-60
2022/01/24 08:17:51;;;;;;;2.93;2.67;;;;;;;3.48;85.26;101859.44;5010068;28;20907;-61
2022/01/24 08:20:17;;;;;;;2.70;2.50;;;;;;;3.58;85.02;101855.22;4984382;28;20219;-61
2022/01/24 08:22:43;;;;;;;3.00;2.70;;;;;;;3.51;84.93;101856.88;5003566;28;20529;-61
2022/01/24 08:25:09;;;;;;;3.27;2.67;;;;;;;3.40;85.36;101854.31;4994198;28;20195;-61
2022/01/24 08:27:36;;;;;;;4.47;2.67;;;;;;;3.46;85.87;101867.06;4994079;28;20187;-61
2022/01/24 08:30:05;;;;;;;3.27;3.07;;;;;;;3.44;86.19;101856.03;4993778;28;20191;-60
2022/01/24 08:32:31;;;;;;;3.20;2.90;;;;;;;3.62;85.88;101855.25;4971109;28;20318;-61
2022/01/24 08:34:58;;;;;;;4.80;3.83;;;;;;;3.51;85.58;101861.97;5013197;28;20199;-60
2022/01/24 08:37:24;;;;;;;5.23;4.73;;;;;;;3.76;85.75;101862.03;5013213;28;20233;-61
2022/01/24 08:39:49;;;;;;;3.70;3.37;;;;;;;3.92;85.63;101856.16;5004784;28;20187;-61
2022/01/24 08:42:20;;;;;;;3.70;3.20;;;;;;;4.02;83.88;101860.41;5003894;28;20605;-61
2022/01/24 08:47:29;;;;;;;3.07;2.87;;;;;;;3.91;83.16;101862.09;5012282;28;20221;-61
2022/01/24 08:49:54;;;;;;;3.83;2.90;;;;;;;3.92;83.63;101861.25;4998293;28;20183;-61
2022/01/24 08:52:20;;;;;;;5.47;3.07;;;;;;;4.06;83.39;101866.34;5003804;28;20657;-60
2022/01/24 08:54:46;;;;;;;3.23;3.00;;;;;;;3.86;83.00;101867.16;5022500;28;20209;-60
2022/01/24 08:57:13;;;;;;;5.60;2.80;;;;;;;3.87;83.77;101866.31;4999485;28;20723;-60
2022/01/24 08:59:39;;;;;;;3.50;3.20;;;;;;;3.98;83.54;101870.56;5005686;28;20221;-60
2022/01/24 09:02:05;;;;;;;3.20;2.90;;;;;;;3.85;82.91;101873.09;5016215;28;20233;-60
2022/01/24 09:04:30;;;;;;;3.30;3.00;;;;;;;3.77;83.20;101872.25;5015020;28;20228;-60
2022/01/24 09:06:59;;;;;;;3.23;2.97;;;;;;;3.58;83.92;101871.31;5009569;28;20241;-60
2022/01/24 09:09:25;;;;;;;3.50;3.10;;;;;;;3.71;84.75;101869.69;5012432;28;20191;-60
2022/01/24 09:11:50;;;;;;;4.97;3.20;;;;;;;3.61;84.55;101873.03;5003933;28;20248;-60
2022/01/24 09:14:15;;;;;;;3.23;2.93;;;;;;;3.78;84.50;101865.44;4996424;28;20176;-60
2022/01/24 09:16:41;;;;;;;5.90;3.23;;;;;;;3.96;84.13;101880.75;5002260;28;20209;-60
2022/01/24 09:19:06;;;;;;;4.40;3.40;;;;;;;3.77;83.52;101876.47;5012809;28;20213;-60
2022/01/24 09:21:34;;;;;;;5.43;3.43;;;;;;;3.79;83.75;101873.06;5010031;28;20229;-59
2022/01/24 09:24:01;;;;;;;4.33;3.00;;;;;;;3.82;84.04;101875.66;5006517;28;20175;-59
2022/01/24 09:26:27;;;;;;;4.77;3.20;;;;;;;3.91;83.93;101879.03;4995607;28;20187;-59
2022/01/24 09:28:52;;;;;;;4.33;3.80;;;;;;;3.83;83.77;101874.81;4994711;28;20240;-60
2022/01/24 09:31:18;;;;;;;7.73;3.70;;;;;;;3.78;84.26;101876.47;5010745;28;20218;-60
2022/01/24 09:33:44;;;;;;;4.47;3.90;;;;;;;3.90;84.58;101870.56;5011032;28;20344;-62
2022/01/24 09:36:09;;;;;;;3.70;3.20;;;;;;;3.91;83.33;101879.91;5004268;28;20791;-63
2022/01/24 09:38:36;;;;;;;4.10;3.70;;;;;;;4.11;82.87;101879.94;5017127;28;20664;-58
2022/01/24 09:41:04;;;;;;;3.37;3.07;;;;;;;4.09;82.12;101881.59;5017771;28;20222;-58
2022/01/24 09:43:30;;;;;;;7.23;3.77;;;;;;;3.98;83.04;101889.25;5018028;28;20171;-58
2022/01/24 09:45:57;;;;;;;3.80;3.50;;;;;;;3.97;83.21;101884.13;5024525;28;20217;-59
2022/01/24 09:48:22;;;;;;;4.33;3.83;;;;;;;3.83;83.92;101886.66;5014795;28;20662;-59
2022/01/24 09:50:51;;;;;;;3.77;3.07;;;;;;;3.81;83.73;101899.41;5005224;28;20221;-58
2022/01/24 09:53:17;;;;;;;3.83;3.53;;;;;;;3.82;83.63;101892.59;5026472;28;20182;-58
2022/01/24 09:55:43;;;;;;;3.43;3.13;;;;;;;3.83;83.47;101887.53;5015052;28;20679;-59
2022/01/24 09:58:09;;;;;;;4.27;3.50;;;;;;;3.62;84.77;101897.63;5010595;28;20274;-58
2022/01/24 10:00:35;;;;;;;3.67;3.30;;;;;;;3.71;84.86;101888.34;5006145;28;20226;-60
2022/01/24 10:03:00;;;;;;;4.27;3.47;;;;;;;4.00;84.19;101896.88;5025442;28;20253;-60
2022/01/24 10:05:30;;;;;;;4.47;3.80;;;;;;;3.99;83.91;101896.03;5013450;28;20222;-60
2022/01/24 10:08:05;;;;;;;4.33;3.93;;;;;;;4.02;83.24;101890.13;5016757;28;20181;-60
2022/01/24 10:10:33;;;;;;;3.80;3.50;;;;;;;3.84;82.96;101883.28;5004345;28;20186;-61
2022/01/24 10:16:29;;;;;;;5.17;3.30;;;;;;;3.86;83.86;101881.59;5011531;28;20208;-60
2022/01/24 10:19:16;;;;;;;5.93;4.00;;;;;;;3.92;83.49;101878.19;5020731;28;20169;-60
2022/01/24 10:21:50;;;;;;;4.87;3.80;;;;;;;3.96;83.09;101875.66;5000537;28;20301;-60
2022/01/24 10:24:34;;;;;;;7.23;3.53;;;;;;;4.03;83.21;101881.59;4991864;28;20228;-60
2022/01/24 10:27:06;;;;;;;5.83;3.73;;;;;;;4.10;82.51;101878.22;4991563;28;20283;-60
2022/01/24 10:29:31;;;;;;;3.87;3.40;;;;;;;3.93;82.25;101875.69;4993108;28;20187;-60
2022/01/24 10:31:56;;;;;;;3.63;3.33;;;;;;;4.19;82.94;101874.81;5018034;28;20714;-59
2022/01/24 10:34:28;;;;;;;5.90;3.90;;;;;;;4.31;81.62;101877.38;5021315;28;20200;-59
2022/01/24 10:36:56;;;;;;;4.27;3.87;;;;;;;3.92;81.69;101878.19;5015788;28;20210;-60
2022/01/24 10:45:09;;;;;;;6.53;4.00;;;;;;;4.45;79.72;101874.00;5002849;28;20535;-62
2022/01/24 10:47:43;;;;;;;6.20;3.67;;;;;;;4.44;80.33;101868.06;5009289;28;20183;-62
2022/01/24 10:50:08;;;;;;;3.90;3.37;;;;;;;4.68;78.96;101864.59;5001191;28;20179;-59
2022/01/24 10:52:34;;;;;;;7.23;3.80;;;;;;;4.53;78.58;101857.84;5025404;28;20184;-59
2022/01/24 10:55:19;;;;;;;5.40;3.63;;;;;;;4.83;78.03;101861.19;5015548;28;20239;-60
2022/01/24 10:57:48;;;;;;;10.10;4.25;;;;;;;5.05;76.85;101862.81;5019042;28;20522;-61
2022/01/24 11:00:15;;;;;;;4.50;3.85;;;;;;;4.96;76.31;101858.59;5004994;28;20425;-60
2022/01/24 11:02:43;;;;;;;3.70;3.37;;;;;;;4.82;77.22;101858.63;5006727;28;20232;-61
2022/01/24 11:05:21;;;;;;;5.43;3.40;;;;;;;4.99;76.83;101850.94;5022957;28;20277;-60
2022/01/24 11:07:57;;;;;;;7.33;3.77;;;;;;;4.97;76.30;101850.97;4991687;28;20175;-61
2022/01/24 11:10:29;;;;;;;4.63;3.57;;;;;;;4.90;76.13;101851.84;5002548;28;20293;-61
2022/01/24 11:12:55;;;;;;;3.40;3.10;;;;;;;4.79;76.74;101845.91;5013088;28;20183;-61
2022/01/24 11:15:24;;;;;;;4.47;3.67;;;;;;;4.41;78.23;101841.72;4995727;28;20597;-60
2022/01/24 11:17:50;;;;;;;5.03;3.93;;;;;;;4.46;79.22;101843.41;5009328;28;20206;-61
2022/01/24 11:20:18;;;;;;;5.43;3.73;;;;;;;4.58;78.71;101850.19;4998017;28;20276;-61
2022/01/24 11:22:59;;;;;;;7.17;3.80;;;;;;;4.55;77.95;101844.25;5014988;28;20206;-61
2022/01/24 11:25:25;;;;;;;6.33;4.57;;;;;;;4.52;78.55;101840.84;5004458;28;20277;-60
2022/01/24 11:27:51;;;;;;;15.43;5.20;;;;;;;4.52;79.24;101843.38;4994080;28;20207;-61
2022/01/24 11:30:22;;;;;;;5.57;4.40;;;;;;;4.78;77.97;101844.22;4997181;28;20183;-61
2022/01/24 11:32:55;;;;;;;6.40;3.77;;;;;;;5.12;76.84;101839.88;5019602;28;20183;-61
2022/01/24 11:35:39;;;;;;;5.53;4.13;;;;;;;5.21;75.96;101848.31;4999167;28;20843;-61
2022/01/24 11:38:28;;;;;;;5.17;3.80;;;;;;;4.87;75.93;101843.34;5008740;28;20855;-60
2022/01/24 11:41:00;;;;;;;4.33;3.93;;;;;;;4.74;76.76;101851.00;5003513;28;20232;-61
2022/01/24 11:43:39;;;;;;;4.37;3.83;;;;;;;4.39;78.20;101846.81;5016535;28;20183;-61
2022/01/24 11:46:41;;;;;;;5.20;4.30;;;;;;;4.47;78.22;101845.09;5010006;28;20262;-61
2022/01/24 11:49:38;;;;;;;6.40;4.53;;;;;;;4.43;77.89;101840.00;5011062;28;20194;-61
2022/01/24 11:52:11;;;;;;;3.93;3.63;;;;;;;4.58;77.01;101839.16;5000709;28;20587;-61
2022/01/24 11:57:39;;;;;;;4.23;3.63;;;;;;;4.79;77.14;101820.41;5009512;28;20702;-61
2022/01/24 12:00:05;;;;;;;4.93;4.30;;;;;;;4.76;76.97;101822.97;4976271;28;20221;-61
2022/01/24 12:02:41;;;;;;;4.80;4.23;;;;;;;4.84;76.96;101818.69;5017199;28;20226;-61
2022/01/24 12:05:15;;;;;;;7.00;4.00;;;;;;;4.69;76.87;101825.53;5004643;28;20669;-59
2022/01/24 12:07:52;;;;;;;4.80;4.00;;;;;;;4.72;77.79;101826.38;5017704;28;20185;-61
2022/01/24 12:10:23;;;;;;;5.57;5.07;;;;;;;4.49;78.09;101820.47;5006261;28;20284;-61
2022/01/24 12:13:04;;;;;;;7.33;5.00;;;;;;;4.55;78.17;101813.66;5033759;28;20189;-59
2022/01/24 12:15:42;;;;;;;5.10;4.30;;;;;;;4.63;77.93;101825.53;5003360;28;20782;-61
2022/01/24 12:18:40;;;;;;;5.87;5.00;;;;;;;4.98;77.54;101822.03;5013841;28;20258;-61
2022/01/24 12:21:11;;;;;;;6.13;4.47;;;;;;;4.65;77.18;101823.84;4943719;28;20605;-61
2022/01/24 12:23:38;;;;;;;6.03;4.40;;;;;;;4.46;78.83;101825.56;4945912;29;20228;-61
2022/01/24 12:26:07;;;;;;;8.57;4.10;;;;;;;4.34;79.33;101817.94;4929599;29;20212;-61
2022/01/24 12:28:41;;;;;;;7.83;4.40;;;;;;;4.30;79.96;101819.63;4948567;29;20678;-60
2022/01/24 12:31:20;;;;;;;4.60;4.00;;;;;;;4.31;79.50;101818.78;4917336;28;20604;-61
2022/01/24 12:33:57;;;;;;;5.47;4.20;;;;;;;4.35;79.88;101812.84;4964335;28;20676;-61
2022/01/24 12:36:37;;;;;;;7.00;3.93;;;;;;;4.43;79.78;101817.06;4968219;28;20270;-61
2022/01/24 12:39:14;;;;;;;5.57;3.47;;;;;;;4.56;78.98;101812.81;4966975;28;20826;-60
2022/01/24 12:41:46;;;;;;;5.47;3.83;;;;;;;4.60;78.37;101802.63;4948423;28;20227;-61
2022/01/24 12:46:18;;;;;;;4.57;3.37;;;;;;;4.87;77.97;101803.38;4966948;28;20203;-61
2022/01/24 12:46:58;;;;;;;4.03;3.60;;;;;;;4.62;77.61;101802.59;4963746;28;20190;-61
2022/01/24 12:49:26;;;;;;;4.87;3.70;;;;;;;4.96;77.87;101799.94;4967410;28;20450;-61
2022/01/24 12:51:51;;;;;;;4.37;3.80;;;;;;;4.84;76.73;101798.31;4957910;28;20250;-61
2022/01/24 12:54:17;;;;;;;6.53;3.60;;;;;;;5.03;77.28;101788.88;4966428;28;20776;-62
2022/01/24 12:56:42;;;;;;;7.97;4.40;;;;;;;4.75;76.78;101791.53;4981655;28;20561;-61
2022/01/24 12:59:08;;;;;;;7.47;3.73;;;;;;;4.55;77.47;101800.91;5014684;28;20542;-61
2022/01/24 13:01:37;;;;;;;3.80;3.40;;;;;;;4.49;78.38;101794.13;5012543;28;20547;-61
2022/01/24 13:04:13;;;;;;;9.20;3.80;;;;;;;4.80;77.32;101786.41;5000648;28;20545;-61
2022/01/24 13:06:42;;;;;;;5.63;3.63;;;;;;;4.65;76.86;101789.84;4993385;28;20671;-61
2022/01/24 13:09:10;;;;;;;6.23;3.60;;;;;;;4.57;77.27;101794.13;4993902;28;20176;-61
2022/01/24 13:11:44;;;;;;;7.13;4.13;;;;;;;4.91;78.18;101791.47;5018793;28;20228;-61
2022/01/24 13:14:13;;;;;;;6.83;3.60;;;;;;;5.15;77.10;101787.97;5009299;28;20197;-61
2022/01/24 13:22:53;;;;;;;5.43;3.03;;;;;;;5.04;76.68;101780.38;5008878;28;20224;-61
2022/01/24 13:25:25;;;;;;;6.55;4.05;;;;;;;5.19;75.69;101776.88;5017368;28;20425;-60
2022/01/24 13:27:51;;;;;;;4.53;3.23;;;;;;;5.42;75.69;101774.22;4997428;28;20216;-62
2022/01/24 13:30:23;;;;;;;3.43;3.10;;;;;;;5.69;73.92;101766.38;5004447;28;20173;-61
2022/01/24 13:33:10;;;;;;;7.30;3.73;;;;;;;5.43;72.95;101763.16;5023920;28;20270;-62
2022/01/24 13:35:40;;;;;;;8.23;4.90;;;;;;;5.42;75.74;101771.66;4998259;28;20211;-61